createdAt,value
2023-04-16T00:01:07.340Z,100232.50
2023-04-16T00:03:35.537Z,100230.66
2023-04-16T00:06:03.629Z,100234.81
2023-04-16T00:08:31.156Z,100241.56
2023-04-16T00:10:58.950Z,100238.25
2023-04-16T00:13:27.574Z,100192.25
2023-04-16T00:15:55.058Z,100239.69
2023-04-16T00:18:22.863Z,100237.34
2023-04-16T00:20:50.782Z,100235.56
2023-04-16T00:23:18.416Z,100240.09
2023-04-16T00:25:46.285Z,100238.06
2023-04-16T00:28:13.669Z,100231.84
2023-04-16T00:30:41.315Z,100184.41
2023-04-16T00:33:09.107Z,100183.06
2023-04-16T00:35:36.570Z,100226.53
2023-04-16T00:38:04.070Z,100228.66
2023-04-16T00:40:31.827Z,100230.91
2023-04-16T00:42:59.304Z,100229.81
2023-04-16T00:45:27.143Z,100187.34
2023-04-16T00:47:57.125Z,100227.47
2023-04-16T00:50:25.310Z,100224.50
2023-04-16T00:52:52.814Z,100219.97
2023-04-16T00:55:21.404Z,100175.59
2023-04-16T00:57:49.111Z,100229.56
2023-04-16T01:00:16.897Z,100228.22
2023-04-16T01:02:44.746Z,100226.87
2023-04-16T01:05:12.534Z,100219.31
2023-04-16T01:07:40.014Z,100216.56
2023-04-16T01:10:08.098Z,100217.25
2023-04-16T01:12:35.887Z,100180.03
2023-04-16T01:15:03.699Z,100226.53
2023-04-16T01:17:31.409Z,100219.34
2023-04-16T01:20:00.503Z,100221.50
2023-04-16T01:22:28.965Z,100213.22
2023-04-16T01:24:56.683Z,100210.91
2023-04-16T01:27:24.187Z,100207.63
2023-04-16T01:29:51.755Z,100214.13
2023-04-16T01:32:20.740Z,100218.31
2023-04-16T01:34:48.218Z,100214.00
2023-04-16T01:37:15.836Z,100211.50
2023-04-16T01:39:43.773Z,100208.62
2023-04-16T01:42:11.522Z,100211.56
2023-04-16T01:44:39.012Z,100206.31
2023-04-16T01:47:06.704Z,100208.34
2023-04-16T01:49:34.806Z,100201.47
2023-04-16T01:52:02.429Z,100162.66
2023-04-16T01:54:30.861Z,100159.22
2023-04-16T01:56:59.451Z,100154.53
2023-04-16T01:59:26.931Z,100201.56
2023-04-16T02:01:55.422Z,100157.06
2023-04-16T02:04:23.277Z,100203.37
2023-04-16T02:06:50.962Z,100206.47
2023-04-16T02:09:18.688Z,100208.25
2023-04-16T02:11:46.932Z,100206.09
2023-04-16T02:14:14.770Z,100203.19
2023-04-16T02:16:43.043Z,100204.13
2023-04-16T02:19:11.228Z,100203.03
2023-04-16T02:21:40.204Z,100199.72
2023-04-16T02:24:08.230Z,100155.34
2023-04-16T02:26:35.841Z,100203.00
2023-04-16T02:29:03.942Z,100206.87
2023-04-16T02:31:32.680Z,100211.28
2023-04-16T02:34:00.257Z,100203.00
2023-04-16T02:36:28.021Z,100201.56
2023-04-16T02:38:55.689Z,100199.06
2023-04-16T02:41:23.102Z,100192.72
2023-04-16T02:43:50.924Z,100192.41
2023-04-16T02:46:18.375Z,100196.47
2023-04-16T02:48:46.058Z,100154.53
2023-04-16T02:51:14.176Z,100193.66
2023-04-16T02:53:45.519Z,100196.19
2023-04-16T02:56:13.481Z,100190.47
2023-04-16T02:58:41.864Z,100193.22
2023-04-16T03:01:09.548Z,100194.81
2023-04-16T03:03:37.140Z,100195.84
2023-04-16T03:06:04.983Z,100193.28
2023-04-16T03:08:32.718Z,100193.91
2023-04-16T03:11:00.264Z,100191.84
2023-04-16T03:13:28.071Z,100196.50
2023-04-16T03:15:55.769Z,100193.94
2023-04-16T03:18:23.414Z,100192.28
2023-04-16T03:20:54.479Z,100192.53
2023-04-16T03:23:22.062Z,100203.88
2023-04-16T03:25:49.528Z,100204.34
2023-04-16T03:28:17.901Z,100158.53
2023-04-16T03:30:54.762Z,100208.06
2023-04-16T03:33:22.975Z,100211.38
2023-04-16T03:35:58.438Z,100203.19
2023-04-16T03:38:26.785Z,100211.62
2023-04-16T03:40:54.819Z,100214.38
2023-04-16T03:43:22.353Z,100219.00
2023-04-16T03:45:50.867Z,100216.97
2023-04-16T03:48:19.818Z,100214.13
2023-04-16T03:50:48.588Z,100159.75
2023-04-16T03:53:16.872Z,100211.28
2023-04-16T03:55:44.307Z,100220.56
2023-04-16T03:58:11.935Z,100225.66
2023-04-16T04:00:42.439Z,100228.62
2023-04-16T04:03:11.627Z,100216.16
2023-04-16T04:05:41.272Z,100221.84
2023-04-16T04:08:09.619Z,100222.31
2023-04-16T04:10:37.878Z,100228.84
2023-04-16T04:13:06.899Z,100226.25
2023-04-16T04:15:34.994Z,100226.47
2023-04-16T04:18:02.843Z,100208.75
2023-04-16T04:20:30.509Z,100226.22
2023-04-16T04:22:58.662Z,100180.13
2023-04-16T04:25:26.919Z,100234.16
2023-04-16T04:27:54.525Z,100233.53
2023-04-16T04:30:22.236Z,100235.88
2023-04-16T04:32:50.161Z,100240.28
2023-04-16T04:35:17.947Z,100236.06
2023-04-16T04:37:45.954Z,100236.59
2023-04-16T04:40:14.309Z,100237.16
2023-04-16T04:42:41.860Z,100242.22
2023-04-16T04:45:10.580Z,100243.78
2023-04-16T04:47:38.508Z,100254.94
2023-04-16T04:50:06.679Z,100256.66
2023-04-16T04:52:34.790Z,100248.00
2023-04-16T04:55:02.887Z,100252.06
2023-04-16T04:57:30.780Z,100250.59
2023-04-16T04:59:58.414Z,100259.88
2023-04-16T05:02:27.983Z,100215.03
2023-04-16T05:04:55.755Z,100249.12
2023-04-16T05:07:23.329Z,100249.12
2023-04-16T05:09:51.985Z,100242.06
2023-04-16T05:12:19.466Z,100213.28
2023-04-16T05:14:46.898Z,100245.69
2023-04-16T05:17:14.660Z,100200.59
2023-04-16T05:19:42.237Z,100243.97
2023-04-16T05:22:09.640Z,100245.75
2023-04-16T05:24:37.373Z,100240.94
2023-04-16T05:27:04.900Z,100236.38
2023-04-16T05:29:32.544Z,100236.00
2023-04-16T05:32:00.496Z,100243.87
2023-04-16T05:34:27.938Z,100247.50
2023-04-16T05:36:55.395Z,100212.81
2023-04-16T05:39:23.229Z,100262.06
2023-04-16T05:41:50.686Z,100217.38
2023-04-16T05:44:18.120Z,100262.19
2023-04-16T05:46:46.004Z,100227.63
2023-04-16T05:49:13.437Z,100276.03
2023-04-16T05:51:41.024Z,100278.84
2023-04-16T05:54:08.807Z,100279.25
2023-04-16T05:56:36.287Z,100275.00
2023-04-16T05:59:04.486Z,100241.78
2023-04-16T06:01:34.392Z,100278.84
2023-04-16T06:04:02.548Z,100280.38
2023-04-16T06:06:30.227Z,100287.69
2023-04-16T06:08:58.025Z,100295.44
2023-04-16T06:11:27.595Z,100268.63
2023-04-16T06:13:55.047Z,100298.22
2023-04-16T06:16:22.474Z,100293.50
2023-04-16T06:18:50.543Z,100308.72
2023-04-16T06:21:18.441Z,100296.12
2023-04-16T06:23:46.094Z,100296.41
2023-04-16T06:26:13.949Z,100290.41
2023-04-16T06:28:41.309Z,100294.81
2023-04-16T06:31:08.949Z,100290.88
2023-04-16T06:33:36.712Z,100290.31
2023-04-16T06:36:04.297Z,100296.88
2023-04-16T06:38:32.161Z,100296.59
2023-04-16T06:41:00.104Z,100296.50
2023-04-16T06:43:27.639Z,100292.22
2023-04-16T06:45:55.665Z,100293.44
2023-04-16T06:48:23.451Z,100303.56
2023-04-16T06:50:51.178Z,100252.09
2023-04-16T06:53:18.943Z,100297.28
2023-04-16T06:55:46.698Z,100294.94
2023-04-16T06:58:14.130Z,100298.31
2023-04-16T07:00:41.762Z,100302.75
2023-04-16T07:03:10.059Z,100306.72
2023-04-16T07:05:37.786Z,100301.00
2023-04-16T07:08:05.477Z,100304.44
2023-04-16T07:10:33.266Z,100259.38
2023-04-16T07:13:01.671Z,100305.00
2023-04-16T07:15:29.402Z,100306.41
2023-04-16T07:17:57.276Z,100266.16
2023-04-16T07:20:25.220Z,100309.16
2023-04-16T07:22:52.829Z,100320.88
2023-04-16T07:25:20.970Z,100324.84
2023-04-16T07:27:48.536Z,100304.63
2023-04-16T07:30:16.092Z,100315.50
2023-04-16T07:32:43.950Z,100329.72
2023-04-16T07:35:11.570Z,100328.03
2023-04-16T07:37:39.020Z,100320.09
2023-04-16T07:40:07.675Z,100324.69
2023-04-16T07:42:35.895Z,100326.13
2023-04-16T07:45:04.000Z,100311.63
2023-04-16T07:47:31.761Z,100304.25
2023-04-16T07:49:59.270Z,100327.22
2023-04-16T07:52:26.889Z,100323.97
2023-04-16T07:54:55.015Z,100322.16
2023-04-16T07:57:22.510Z,100323.47
2023-04-16T07:59:50.026Z,100329.75
2023-04-16T08:02:18.022Z,100332.03
2023-04-16T08:04:46.175Z,100334.22
2023-04-16T08:07:13.736Z,100330.97
2023-04-16T08:09:54.316Z,100325.31
2023-04-16T08:12:22.359Z,100342.72
2023-04-16T08:14:49.884Z,100337.03
2023-04-16T08:17:17.313Z,100327.12
2023-04-16T08:19:45.435Z,100324.91
2023-04-16T08:22:13.556Z,100334.66
2023-04-16T08:24:41.160Z,100284.72
2023-04-16T08:27:18.565Z,100323.75
2023-04-16T08:29:47.892Z,100320.31
2023-04-16T08:32:15.683Z,100300.06
2023-04-16T08:34:43.396Z,100328.69
2023-04-16T08:37:10.936Z,100333.47
2023-04-16T08:39:38.747Z,100325.59
2023-04-16T08:42:12.039Z,100315.03
2023-04-16T08:44:48.496Z,100282.97
2023-04-16T08:47:16.784Z,100326.94
2023-04-16T08:49:48.783Z,100322.63
2023-04-16T08:52:20.297Z,100320.00
2023-04-16T08:55:19.092Z,100322.66
2023-04-16T08:57:54.338Z,100319.25
2023-04-16T09:00:22.580Z,100325.03
2023-04-16T09:02:51.571Z,100325.03
2023-04-16T09:05:20.815Z,100323.38
2023-04-16T09:07:48.787Z,100331.31
2023-04-16T09:10:16.702Z,100330.50
2023-04-16T09:12:44.888Z,100339.44
2023-04-16T09:15:14.112Z,100344.88
2023-04-16T09:17:41.871Z,100357.25
2023-04-16T09:20:11.075Z,100353.72
2023-04-16T09:22:40.792Z,100346.97
2023-04-16T09:25:08.876Z,100353.62
2023-04-16T09:27:36.531Z,100349.47
2023-04-16T09:30:22.829Z,100352.13
2023-04-16T09:32:52.166Z,100326.50
2023-04-16T09:35:20.435Z,100371.81
2023-04-16T09:37:57.925Z,100363.41
2023-04-16T09:40:27.646Z,100362.41
2023-04-16T09:43:00.919Z,100361.09
2023-04-16T09:45:32.753Z,100378.31
2023-04-16T09:48:05.588Z,100364.56
2023-04-16T09:50:33.474Z,100353.13
2023-04-16T09:53:02.620Z,100316.41
2023-04-16T09:55:30.091Z,100315.25
2023-04-16T09:58:01.485Z,100337.94
2023-04-16T10:00:31.372Z,100360.44
2023-04-16T10:03:08.763Z,100315.44
2023-04-16T10:05:37.013Z,100315.44
2023-04-16T10:08:12.577Z,100343.88
2023-04-16T10:10:41.593Z,100342.50
2023-04-16T10:13:10.523Z,100342.69
2023-04-16T10:15:38.753Z,100341.34
2023-04-16T10:18:07.363Z,100337.12
2023-04-16T10:20:35.556Z,100334.25
2023-04-16T10:23:03.425Z,100329.69
2023-04-16T10:25:31.213Z,100344.94
2023-04-16T10:28:00.153Z,100328.87
2023-04-16T10:30:28.111Z,100338.47
2023-04-16T10:32:58.956Z,100338.00
2023-04-16T10:35:28.235Z,100348.41
2023-04-16T10:38:25.140Z,100321.34
2023-04-16T10:41:04.573Z,100336.06
2023-04-16T10:43:34.466Z,100334.03
2023-04-16T10:46:21.015Z,100332.53
2023-04-16T10:48:50.768Z,100327.06
2023-04-16T10:51:30.116Z,100299.97
2023-04-16T10:54:02.928Z,100329.22
2023-04-16T10:56:34.296Z,100322.88
2023-04-16T10:59:05.958Z,100331.81
2023-04-16T11:01:36.295Z,100323.69
2023-04-16T11:04:22.184Z,100313.22
2023-04-16T11:07:06.977Z,100321.59
2023-04-16T11:10:03.130Z,100323.78
2023-04-16T11:12:38.969Z,100314.31
2023-04-16T11:15:06.751Z,100309.41
2023-04-16T11:17:46.122Z,100308.03
2023-04-16T11:20:27.857Z,100311.25
2023-04-16T11:22:57.346Z,100303.91
2023-04-16T11:25:29.879Z,100303.44
2023-04-16T11:28:01.421Z,100296.09
2023-04-16T11:30:29.900Z,100301.63
2023-04-16T11:32:57.791Z,100300.97
2023-04-16T11:35:25.515Z,100307.84
2023-04-16T11:37:57.153Z,100308.81
2023-04-16T11:40:26.188Z,100302.00
2023-04-16T11:42:53.698Z,100303.50
2023-04-16T11:45:21.705Z,100259.84
2023-04-16T11:47:52.260Z,100291.78
2023-04-16T11:50:21.492Z,100296.97
2023-04-16T11:52:50.590Z,100291.06
2023-04-16T11:55:18.487Z,100296.84
2023-04-16T11:57:46.338Z,100294.19
2023-04-16T12:00:15.205Z,100297.47
2023-04-16T12:02:46.027Z,100294.94
2023-04-16T12:05:32.741Z,100292.50
2023-04-16T12:08:07.444Z,100299.81
2023-04-16T12:10:36.871Z,100290.94
2023-04-16T12:13:14.576Z,100287.25
2023-04-16T12:15:53.725Z,100286.00
2023-04-16T12:18:23.760Z,100282.81
2023-04-16T12:20:51.444Z,100290.75
2023-04-16T12:23:45.389Z,100287.41
2023-04-16T12:26:14.368Z,100277.06
2023-04-16T12:28:42.080Z,100280.63
2023-04-16T12:31:11.141Z,100274.81
2023-04-16T12:33:38.811Z,100284.72
2023-04-16T12:36:19.710Z,100237.41
2023-04-16T12:38:47.476Z,100280.69
2023-04-16T12:41:15.010Z,100275.75
2023-04-16T12:43:42.573Z,100272.88
2023-04-16T12:46:10.361Z,100268.94
2023-04-16T12:48:37.997Z,100284.72
2023-04-16T12:51:06.186Z,100269.56
2023-04-16T12:53:34.590Z,100226.47
2023-04-16T12:56:02.385Z,100265.50
2023-04-16T12:58:29.882Z,100259.62
2023-04-16T13:00:57.769Z,100253.59
2023-04-16T13:03:25.561Z,100218.12
2023-04-16T13:05:53.254Z,100261.69
2023-04-16T13:08:21.255Z,100248.38
2023-04-16T13:10:48.838Z,100253.56
2023-04-16T13:13:16.519Z,100217.16
2023-04-16T13:15:44.334Z,100258.00
2023-04-16T13:18:11.954Z,100207.25
2023-04-16T13:20:39.566Z,100250.34
2023-04-16T13:23:07.303Z,100244.72
2023-04-16T13:25:35.088Z,100242.69
2023-04-16T13:28:02.748Z,100247.44
2023-04-16T13:30:33.439Z,100243.66
2023-04-16T13:33:01.139Z,100205.47
2023-04-16T13:35:29.357Z,100243.34
2023-04-16T13:37:57.180Z,100242.97
2023-04-16T13:40:24.695Z,100247.03
2023-04-16T13:42:52.449Z,100246.31
2023-04-16T13:45:20.697Z,100243.56
2023-04-16T13:47:48.467Z,100252.81
2023-04-16T13:50:16.120Z,100243.28
2023-04-16T13:52:43.913Z,100202.53
2023-04-16T13:55:14.046Z,100245.59
2023-04-16T13:57:41.630Z,100245.19
2023-04-16T14:00:11.865Z,100245.56
2023-04-16T14:02:42.782Z,100252.22
2023-04-16T14:05:10.623Z,100246.09
2023-04-16T14:07:38.271Z,100245.47
2023-04-16T14:10:06.874Z,100243.56
2023-04-16T14:12:34.479Z,100188.53
2023-04-16T14:15:04.356Z,100250.94
2023-04-16T14:17:32.589Z,100253.34
2023-04-16T14:20:00.428Z,100262.09
2023-04-16T14:22:27.900Z,100261.53
2023-04-16T14:24:56.176Z,100274.78
2023-04-16T14:27:23.567Z,100274.87
2023-04-16T14:29:51.025Z,100280.03
2023-04-16T14:32:18.882Z,100243.38
2023-04-16T14:34:46.798Z,100282.59
2023-04-16T14:37:16.762Z,100282.31
2023-04-16T14:39:44.871Z,100280.78
2023-04-16T14:42:12.414Z,100279.12
2023-04-16T14:44:39.940Z,100270.81
2023-04-16T14:47:08.605Z,100272.84
2023-04-16T14:49:36.375Z,100262.44
2023-04-16T14:52:05.751Z,100271.78
2023-04-16T14:54:34.084Z,100217.63
2023-04-16T14:57:02.067Z,100252.19
2023-04-16T14:59:29.530Z,100250.87
2023-04-16T15:01:58.101Z,100208.59
2023-04-16T15:04:26.025Z,100245.62
2023-04-16T15:06:55.572Z,100238.78
2023-04-16T15:09:23.838Z,100232.97
2023-04-16T15:11:51.737Z,100226.31
2023-04-16T15:14:19.538Z,100183.37
2023-04-16T15:16:48.233Z,100187.31
2023-04-16T15:19:15.768Z,100226.94
2023-04-16T15:21:43.991Z,100220.34
2023-04-16T15:24:12.326Z,100215.44
2023-04-16T15:26:39.890Z,100219.44
2023-04-16T15:29:07.500Z,100213.97
2023-04-16T15:31:35.322Z,100207.16
2023-04-16T15:34:02.988Z,100207.66
2023-04-16T15:36:30.557Z,100207.19
2023-04-16T15:38:58.416Z,100197.63
2023-04-16T15:41:29.346Z,100166.72
2023-04-16T15:43:56.970Z,100204.69
2023-04-16T15:46:25.088Z,100198.88
2023-04-16T15:48:52.683Z,100196.56
2023-04-16T15:51:20.366Z,100190.97
2023-04-16T15:53:49.980Z,100198.38
2023-04-16T15:56:17.600Z,100202.87
2023-04-16T15:58:45.053Z,100195.59
2023-04-16T16:01:13.421Z,100205.00
2023-04-16T16:03:41.682Z,100202.69
2023-04-16T16:06:09.900Z,100207.69
2023-04-16T16:08:38.448Z,100210.53
2023-04-16T16:11:06.223Z,100202.41
2023-04-16T16:13:35.872Z,100203.22
2023-04-16T16:16:04.263Z,100204.22
2023-04-16T16:18:32.315Z,100158.97
2023-04-16T16:21:00.292Z,100206.75
2023-04-16T16:23:28.029Z,100198.94
2023-04-16T16:25:56.859Z,100196.63
2023-04-16T16:28:25.184Z,100192.38
2023-04-16T16:30:54.747Z,100185.44
2023-04-16T16:33:22.739Z,100176.16
2023-04-16T16:35:50.400Z,100191.56
2023-04-16T16:38:18.128Z,100180.47
2023-04-16T16:40:46.296Z,100177.53
2023-04-16T16:43:14.135Z,100195.00
2023-04-16T16:45:41.899Z,100203.31
2023-04-16T16:48:10.339Z,100207.63
2023-04-16T16:50:38.100Z,100203.34
2023-04-16T16:53:06.403Z,100200.84
2023-04-16T16:55:35.554Z,100202.50
2023-04-16T16:58:04.169Z,100197.56
2023-04-16T17:00:31.917Z,100203.19
2023-04-16T17:03:00.000Z,100171.31
2023-04-16T17:05:27.903Z,100206.66
2023-04-16T17:07:55.644Z,100204.50
2023-04-16T17:10:23.510Z,100212.63
2023-04-16T17:12:51.932Z,100206.66
2023-04-16T17:15:21.749Z,100203.22
2023-04-16T17:17:50.616Z,100206.34
2023-04-16T17:20:18.702Z,100156.78
2023-04-16T17:22:47.240Z,100206.00
2023-04-16T17:25:15.631Z,100199.25
2023-04-16T17:27:43.358Z,100201.56
2023-04-16T17:30:11.388Z,100194.78
2023-04-16T17:32:39.674Z,100191.78
2023-04-16T17:35:09.432Z,100190.31
2023-04-16T17:37:37.242Z,100195.75
2023-04-16T17:40:07.670Z,100190.16
2023-04-16T17:42:36.326Z,100196.41
2023-04-16T17:45:04.383Z,100196.75
2023-04-16T17:47:35.707Z,100193.44
2023-04-16T17:50:04.659Z,100175.94
2023-04-16T17:52:32.527Z,100196.56
2023-04-16T17:55:01.687Z,100199.38
2023-04-16T17:57:30.029Z,100194.56
2023-04-16T17:59:58.234Z,100199.84
2023-04-16T18:02:26.305Z,100218.34
2023-04-16T18:04:58.572Z,100211.44
2023-04-16T18:07:26.513Z,100214.72
2023-04-16T18:09:54.832Z,100210.25
2023-04-16T18:12:22.858Z,100211.41
2023-04-16T18:14:50.865Z,100214.84
2023-04-16T18:17:21.900Z,100202.78
2023-04-16T18:19:50.147Z,100207.94
2023-04-16T18:22:18.190Z,100202.78
2023-04-16T18:24:45.968Z,100202.94
2023-04-16T18:27:13.647Z,100219.16
2023-04-16T18:29:44.044Z,100166.72
2023-04-16T18:32:13.038Z,100212.34
2023-04-16T18:34:41.277Z,100203.50
2023-04-16T18:37:09.390Z,100210.56
2023-04-16T18:39:37.379Z,100211.69
2023-04-16T18:42:05.464Z,100166.37
2023-04-16T18:44:34.219Z,100212.84
2023-04-16T18:47:01.798Z,100222.25
2023-04-16T18:49:29.730Z,100214.47
2023-04-16T18:51:57.640Z,100212.16
2023-04-16T18:54:25.516Z,100212.47
2023-04-16T18:56:53.294Z,100208.19
2023-04-16T18:59:21.432Z,100209.00
2023-04-16T19:01:49.304Z,100203.72
2023-04-16T19:04:17.505Z,100193.31
2023-04-16T19:06:45.981Z,100199.78
2023-04-16T19:09:15.018Z,100200.44
2023-04-16T19:11:43.331Z,100202.09
2023-04-16T19:14:11.564Z,100206.75
2023-04-16T19:16:39.462Z,100152.87
2023-04-16T19:19:07.756Z,100198.56
2023-04-16T19:21:35.594Z,100197.09
2023-04-16T19:24:04.072Z,100200.41
2023-04-16T19:26:31.801Z,100196.78
2023-04-16T19:28:59.707Z,100191.81
2023-04-16T19:31:27.788Z,100194.59
2023-04-16T19:33:55.901Z,100193.78
2023-04-16T19:36:23.601Z,100188.31
2023-04-16T19:38:51.543Z,100190.78
2023-04-16T19:41:19.589Z,100190.00
2023-04-16T19:43:47.333Z,100202.06
2023-04-16T19:46:15.492Z,100207.66
2023-04-16T19:48:43.663Z,100213.94
2023-04-16T19:51:11.448Z,100207.84
2023-04-16T19:53:39.137Z,100212.44
2023-04-16T19:56:07.118Z,100205.53
2023-04-16T19:58:34.960Z,100210.63
2023-04-16T20:01:08.713Z,100216.44
2023-04-16T20:03:38.730Z,100162.91
2023-04-16T20:06:07.876Z,100203.88
2023-04-16T20:08:35.463Z,100195.94
2023-04-16T20:11:04.433Z,100219.22
2023-04-16T20:13:32.291Z,100220.22
2023-04-16T20:16:01.169Z,100204.53
2023-04-16T20:18:29.276Z,100215.94
2023-04-16T20:20:57.227Z,100212.78
2023-04-16T20:23:24.888Z,100221.53
2023-04-16T20:25:52.704Z,100212.94
2023-04-16T20:28:21.496Z,100204.53
2023-04-16T20:30:50.876Z,100206.34
2023-04-16T20:33:18.855Z,100201.69
2023-04-16T20:35:47.095Z,100199.56
2023-04-16T20:38:14.777Z,100166.31
2023-04-16T20:40:45.023Z,100204.50
2023-04-16T20:43:14.214Z,100210.94
2023-04-16T20:45:46.172Z,100162.81
2023-04-16T20:48:13.765Z,100209.94
2023-04-16T20:50:41.520Z,100217.69
2023-04-16T20:53:09.321Z,100218.34
2023-04-16T20:55:36.770Z,100203.59
2023-04-16T20:58:04.496Z,100208.34
2023-04-16T21:00:32.412Z,100212.78
2023-04-16T21:03:00.257Z,100213.28
2023-04-16T21:05:30.032Z,100211.16
2023-04-16T21:07:58.296Z,100205.19
2023-04-16T21:10:25.823Z,100205.81
2023-04-16T21:12:53.327Z,100203.34
2023-04-16T21:15:21.359Z,100199.22
2023-04-16T21:17:49.346Z,100191.75
2023-04-16T21:20:16.979Z,100191.94
2023-04-16T21:22:44.730Z,100194.75
2023-04-16T21:25:12.314Z,100149.13
2023-04-16T21:27:39.970Z,100192.59
2023-04-16T21:30:08.563Z,100191.62
2023-04-16T21:32:36.278Z,100186.47
2023-04-16T21:35:04.025Z,100196.91
2023-04-16T21:37:31.974Z,100193.28
2023-04-16T21:40:00.192Z,100194.91
2023-04-16T21:42:27.875Z,100191.97
2023-04-16T21:44:55.697Z,100186.16
2023-04-16T21:47:23.156Z,100182.06
2023-04-16T21:49:50.676Z,100177.78
2023-04-16T21:52:18.392Z,100179.41
2023-04-16T21:54:46.126Z,100174.97
2023-04-16T21:57:13.700Z,100180.25
2023-04-16T21:59:41.497Z,100136.47
2023-04-16T22:02:09.204Z,100173.50
2023-04-16T22:04:40.089Z,100171.69
2023-04-16T22:07:11.816Z,100171.53
2023-04-16T22:09:40.429Z,100171.53
2023-04-16T22:12:10.315Z,100165.56
2023-04-16T22:14:44.074Z,100162.47
2023-04-16T22:17:14.964Z,100171.88
2023-04-16T22:19:44.597Z,100172.69
2023-04-16T22:22:12.435Z,100146.88
2023-04-16T22:24:40.415Z,100161.44
2023-04-16T22:27:07.810Z,100149.37
2023-04-16T22:29:35.457Z,100113.84
2023-04-16T22:32:03.790Z,100161.44
2023-04-16T22:34:31.184Z,100169.84
2023-04-16T22:36:58.802Z,100150.31
2023-04-16T22:39:28.556Z,100166.66
2023-04-16T22:41:56.149Z,100174.38
2023-04-16T22:44:23.646Z,100176.00
2023-04-16T22:46:51.394Z,100164.12
2023-04-16T22:49:18.879Z,100153.97
2023-04-16T22:51:46.807Z,100169.00
2023-04-16T22:54:14.786Z,100165.34
2023-04-16T22:56:42.252Z,100163.84
2023-04-16T22:59:09.987Z,100164.31
2023-04-16T23:01:38.660Z,100158.38
2023-04-16T23:04:06.453Z,100154.78
2023-04-16T23:06:33.991Z,100158.91
2023-04-16T23:09:01.963Z,100160.09
2023-04-16T23:11:29.595Z,100131.50
2023-04-16T23:13:57.216Z,100167.69
2023-04-16T23:16:25.400Z,100168.69
2023-04-16T23:18:52.991Z,100176.44
2023-04-16T23:21:20.840Z,100172.31
2023-04-16T23:23:48.835Z,100128.16
2023-04-16T23:26:16.800Z,100169.19
2023-04-16T23:28:44.774Z,100173.31
2023-04-16T23:31:12.700Z,100128.37
2023-04-16T23:33:40.711Z,100170.69
2023-04-16T23:36:08.794Z,100170.19
2023-04-16T23:38:36.654Z,100171.12
2023-04-16T23:41:05.519Z,100172.91
2023-04-16T23:43:34.732Z,100171.19
2023-04-16T23:46:02.677Z,100123.69
2023-04-16T23:48:30.551Z,100164.91
2023-04-16T23:50:58.230Z,100158.87
2023-04-16T23:53:26.011Z,100166.13
2023-04-16T23:55:53.439Z,100153.22
2023-04-16T23:58:20.990Z,100151.72
